createdAt,value
2023-03-25T00:01:26.134Z,11.30
2023-03-25T00:03:53.628Z,11.40
2023-03-25T00:06:20.621Z,10.60
2023-03-25T00:08:52.083Z,10.80
2023-03-25T00:11:19.965Z,10.60
2023-03-25T00:13:48.208Z,10.40
2023-03-25T00:16:25.678Z,10.50
2023-03-25T00:18:52.661Z,9.40
2023-03-25T00:21:19.580Z,9.70
2023-03-25T00:23:48.027Z,9.80
2023-03-25T00:26:15.054Z,10.10
2023-03-25T00:28:42.058Z,9.70
2023-03-25T00:31:14.416Z,9.30
2023-03-25T00:33:44.267Z,10.50
2023-03-25T00:36:13.763Z,10.00
2023-03-25T00:38:43.218Z,10.30
2023-03-25T00:41:25.719Z,9.70
2023-03-25T00:43:56.674Z,9.10
2023-03-25T00:46:24.423Z,10.00
2023-03-25T00:48:57.293Z,9.70
2023-03-25T00:54:00.272Z,9.90
2023-03-25T00:59:16.436Z,9.60
2023-03-25T01:01:46.515Z,10.20
2023-03-25T01:04:17.098Z,9.60
2023-03-25T01:06:45.578Z,9.60
2023-03-25T01:09:21.283Z,9.60
2023-03-25T01:11:50.617Z,9.00
2023-03-25T01:14:19.515Z,8.50
2023-03-25T01:16:51.068Z,9.30
2023-03-25T01:19:19.420Z,9.10
2023-03-25T01:21:46.995Z,9.50
2023-03-25T01:24:16.207Z,9.00
2023-03-25T01:26:44.669Z,8.80
2023-03-25T01:29:15.015Z,9.40
2023-03-25T01:31:42.426Z,9.40
2023-03-25T01:34:10.937Z,8.70
2023-03-25T01:36:40.137Z,8.60
2023-03-25T01:39:08.335Z,9.10
2023-03-25T01:41:49.142Z,9.20
2023-03-25T01:44:20.996Z,9.40
2023-03-25T01:46:53.674Z,9.50
2023-03-25T01:49:30.377Z,9.40
2023-03-25T01:52:06.418Z,9.00
2023-03-25T01:54:33.487Z,9.60
2023-03-25T01:57:01.484Z,9.20
2023-03-25T01:59:32.143Z,9.70
2023-03-25T02:02:02.623Z,9.00
2023-03-25T02:05:00.188Z,9.20
2023-03-25T02:07:32.976Z,9.50
2023-03-25T02:10:04.827Z,9.70
2023-03-25T02:12:33.120Z,9.00
2023-03-25T02:15:03.377Z,8.60
2023-03-25T02:17:43.929Z,8.70
2023-03-25T02:20:33.689Z,9.30
2023-03-25T02:23:23.997Z,9.90
2023-03-25T02:26:10.917Z,8.80
2023-03-25T02:28:47.395Z,8.90
2023-03-25T02:31:34.469Z,8.80
2023-03-25T02:34:04.802Z,8.70
2023-03-25T02:39:14.211Z,8.90
2023-03-25T02:41:56.243Z,9.00
2023-03-25T02:44:54.833Z,8.70
2023-03-25T02:47:23.562Z,8.50
2023-03-25T02:49:56.597Z,9.00
2023-03-25T02:52:45.085Z,8.90
2023-03-25T02:55:15.140Z,9.60
2023-03-25T02:57:45.612Z,8.70
2023-03-25T03:00:21.059Z,8.90
2023-03-25T03:03:00.227Z,8.90
2023-03-25T03:05:31.302Z,9.30
2023-03-25T03:08:06.076Z,9.00
2023-03-25T03:11:13.019Z,9.10
2023-03-25T03:14:18.297Z,9.10
2023-03-25T03:19:46.730Z,9.10
2023-03-25T03:22:40.580Z,9.10
2023-03-25T03:25:23.472Z,8.60
2023-03-25T03:28:28.815Z,9.10
2023-03-25T03:31:06.963Z,10.00
2023-03-25T03:33:41.226Z,9.50
2023-03-25T03:36:09.963Z,9.00
2023-03-25T03:38:46.933Z,9.90
2023-03-25T03:41:19.659Z,9.50
2023-03-25T03:43:54.610Z,9.40
2023-03-25T03:46:42.462Z,8.90
2023-03-25T03:49:17.399Z,9.20
2023-03-25T03:51:54.112Z,9.00
2023-03-25T03:54:31.029Z,9.00
2023-03-25T03:57:03.030Z,9.00
2023-03-25T03:59:43.137Z,8.50
2023-03-25T04:02:24.239Z,9.00
2023-03-25T04:04:54.894Z,9.60
2023-03-25T04:07:24.704Z,8.40
2023-03-25T04:10:04.093Z,9.30
2023-03-25T04:12:35.664Z,8.30
2023-03-25T04:15:07.375Z,8.70
2023-03-25T04:17:36.230Z,9.30
2023-03-25T04:20:09.269Z,10.30
2023-03-25T04:22:40.116Z,9.40
2023-03-25T04:25:08.110Z,8.50
2023-03-25T04:27:37.878Z,8.90
2023-03-25T04:30:07.270Z,8.70
2023-03-25T04:32:35.683Z,8.00
2023-03-25T04:35:04.888Z,8.70
2023-03-25T04:37:34.400Z,7.90
2023-03-25T04:40:01.943Z,7.70
2023-03-25T04:42:33.089Z,7.70
2023-03-25T04:45:01.383Z,8.00
2023-03-25T04:47:31.179Z,8.50
2023-03-25T04:49:58.884Z,8.50
2023-03-25T04:52:27.077Z,8.10
2023-03-25T04:54:56.019Z,8.30
2023-03-25T04:57:26.140Z,8.10
2023-03-25T04:59:56.972Z,8.50
2023-03-25T05:02:24.352Z,8.20
2023-03-25T05:04:54.322Z,8.40
2023-03-25T05:07:26.382Z,8.80
2023-03-25T05:09:53.618Z,9.10
2023-03-25T05:12:21.508Z,9.00
2023-03-25T05:14:48.863Z,9.30
2023-03-25T05:17:16.393Z,9.10
2023-03-25T05:19:44.589Z,9.10
2023-03-25T05:22:13.402Z,8.70
2023-03-25T05:24:45.350Z,8.80
2023-03-25T05:27:13.029Z,9.00
2023-03-25T05:29:40.719Z,8.60
2023-03-25T05:32:08.387Z,8.50
2023-03-25T05:34:36.159Z,8.60
2023-03-25T05:37:03.553Z,9.50
2023-03-25T05:39:32.610Z,8.40
2023-03-25T05:42:03.023Z,8.50
2023-03-25T05:44:32.132Z,9.10
2023-03-25T05:47:02.608Z,9.00
2023-03-25T05:49:30.811Z,9.00
2023-03-25T05:52:01.003Z,8.30
2023-03-25T05:54:30.837Z,9.00
2023-03-25T05:56:58.999Z,8.50
2023-03-25T05:59:27.559Z,8.40
2023-03-25T06:01:55.075Z,7.90
2023-03-25T06:10:39.713Z,7.80
2023-03-25T06:13:07.904Z,7.60
2023-03-25T06:15:39.613Z,6.60
2023-03-25T06:18:13.459Z,6.80
2023-03-25T06:20:41.526Z,6.90
2023-03-25T06:23:12.085Z,6.70
2023-03-25T06:25:41.216Z,6.60
2023-03-25T06:28:08.589Z,6.40
2023-03-25T06:30:38.226Z,6.50
2023-03-25T06:33:43.310Z,6.10
2023-03-25T06:36:12.983Z,6.40
2023-03-25T06:38:41.245Z,6.60
2023-03-25T06:41:13.200Z,6.60
2023-03-25T06:43:43.553Z,6.20
2023-03-25T06:46:44.287Z,6.40
2023-03-25T06:49:23.902Z,6.20
2023-03-25T06:51:53.846Z,6.70
2023-03-25T06:54:26.534Z,6.60
2023-03-25T06:56:54.050Z,5.80
2023-03-25T06:59:21.816Z,6.30
2023-03-25T07:01:49.153Z,6.30
2023-03-25T07:04:19.093Z,6.50
2023-03-25T07:06:47.214Z,5.90
2023-03-25T07:09:14.455Z,6.20
2023-03-25T07:11:41.884Z,6.40
2023-03-25T07:14:11.430Z,7.00
2023-03-25T07:16:38.880Z,6.40
2023-03-25T07:19:10.397Z,6.50
2023-03-25T07:21:39.500Z,6.20
2023-03-25T07:24:07.573Z,5.60
2023-03-25T07:26:34.895Z,6.90
2023-03-25T07:29:04.426Z,5.70
2023-03-25T07:31:32.721Z,5.90
2023-03-25T07:34:00.345Z,6.20
2023-03-25T07:36:27.610Z,6.50
2023-03-25T07:38:56.966Z,6.40
2023-03-25T07:41:26.234Z,6.20
2023-03-25T07:44:08.114Z,6.10
2023-03-25T07:46:37.601Z,6.10
2023-03-25T07:49:07.694Z,5.90
2023-03-25T07:51:36.703Z,5.60
2023-03-25T07:54:05.589Z,5.00
2023-03-25T07:56:34.200Z,5.50
2023-03-25T07:59:02.807Z,5.80
2023-03-25T08:01:30.190Z,5.50
2023-03-25T08:03:57.934Z,5.30
2023-03-25T08:06:28.616Z,6.20
2023-03-25T08:08:55.953Z,5.80
2023-03-25T08:11:23.361Z,6.00
2023-03-25T08:13:52.659Z,6.60
2023-03-25T08:16:20.230Z,6.30
2023-03-25T08:18:47.828Z,6.10
2023-03-25T08:21:17.441Z,6.60
2023-03-25T08:23:45.223Z,6.10
2023-03-25T08:26:12.632Z,6.20
2023-03-25T08:28:40.648Z,6.00
2023-03-25T08:31:10.811Z,6.50
2023-03-25T08:33:46.338Z,7.20
2023-03-25T08:36:16.138Z,6.30
2023-03-25T08:38:45.936Z,6.20
2023-03-25T08:41:14.008Z,6.30
2023-03-25T08:43:42.127Z,6.50
2023-03-25T08:46:10.590Z,5.90
2023-03-25T08:48:37.918Z,6.80
2023-03-25T08:51:08.633Z,6.70
2023-03-25T08:53:36.931Z,6.40
2023-03-25T08:56:05.995Z,6.60
2023-03-25T08:58:35.353Z,5.80
2023-03-25T09:01:03.245Z,6.10
2023-03-25T09:03:30.542Z,7.90
2023-03-25T09:06:00.358Z,6.80
2023-03-25T09:08:27.951Z,6.20
2023-03-25T09:10:56.358Z,6.00
2023-03-25T09:13:24.223Z,6.40
2023-03-25T09:15:53.171Z,6.60
2023-03-25T09:18:27.992Z,6.20
2023-03-25T09:21:00.834Z,6.20
2023-03-25T09:23:28.218Z,7.10
2023-03-25T09:25:57.091Z,6.90
2023-03-25T09:28:26.388Z,6.70
2023-03-25T09:30:55.324Z,6.70
2023-03-25T09:33:23.888Z,6.10
2023-03-25T09:35:51.974Z,6.40
2023-03-25T09:38:20.226Z,6.70
2023-03-25T09:40:48.772Z,6.10
2023-03-25T09:43:40.603Z,6.50
2023-03-25T09:48:38.893Z,6.10
2023-03-25T09:51:15.946Z,6.60
2023-03-25T09:53:57.769Z,6.90
2023-03-25T09:56:27.739Z,6.50
2023-03-25T09:59:07.687Z,7.20
2023-03-25T10:01:40.048Z,6.70
2023-03-25T10:04:32.274Z,7.40
2023-03-25T10:07:14.851Z,7.60
2023-03-25T10:10:12.767Z,7.50
2023-03-25T10:13:03.136Z,8.40
2023-03-25T10:15:35.644Z,7.80
2023-03-25T10:18:19.612Z,7.50
2023-03-25T10:20:51.068Z,7.60
2023-03-25T10:24:03.524Z,7.40
2023-03-25T10:26:37.565Z,8.00
2023-03-25T10:29:16.263Z,6.90
2023-03-25T10:31:50.881Z,8.50
2023-03-25T10:34:19.236Z,8.00
2023-03-25T10:36:56.560Z,8.10
2023-03-25T10:39:25.958Z,8.30
2023-03-25T10:42:01.899Z,8.50
2023-03-25T10:44:29.582Z,8.10
2023-03-25T10:47:04.339Z,8.50
2023-03-25T10:49:33.394Z,8.40
2023-03-25T10:52:00.869Z,8.60
2023-03-25T10:54:31.892Z,9.00
2023-03-25T10:57:00.741Z,8.30
2023-03-25T10:59:36.058Z,7.70
2023-03-25T11:02:33.083Z,7.70
2023-03-25T11:05:03.210Z,7.90
2023-03-25T11:07:34.419Z,7.70
2023-03-25T11:10:13.917Z,7.90
2023-03-25T11:12:47.795Z,7.20
2023-03-25T11:15:17.254Z,7.50
2023-03-25T11:17:46.404Z,6.90
2023-03-25T11:20:19.584Z,7.30
2023-03-25T11:22:50.589Z,7.50
2023-03-25T11:25:28.336Z,7.30
2023-03-25T11:27:57.503Z,8.00
2023-03-25T11:30:26.949Z,7.60
2023-03-25T11:33:03.538Z,7.30
2023-03-25T11:35:42.503Z,6.70
2023-03-25T11:38:22.898Z,6.30
2023-03-25T11:40:55.456Z,6.30
2023-03-25T11:43:23.896Z,6.90
2023-03-25T11:45:51.928Z,6.50
2023-03-25T11:48:23.255Z,6.80
2023-03-25T11:50:55.933Z,6.20
2023-03-25T11:53:28.465Z,6.20
2023-03-25T11:55:58.292Z,6.20
2023-03-25T11:58:30.508Z,5.80
2023-03-25T12:01:08.001Z,6.00
2023-03-25T12:03:38.844Z,5.60
2023-03-25T12:06:15.152Z,5.90
2023-03-25T12:08:48.715Z,6.40
2023-03-25T12:11:26.169Z,5.40
2023-03-25T12:14:24.216Z,5.30
2023-03-25T12:17:26.183Z,6.00
2023-03-25T12:22:45.744Z,5.90
2023-03-25T12:25:45.135Z,5.60
2023-03-25T12:28:46.682Z,5.50
2023-03-25T12:31:26.224Z,5.00
2023-03-25T12:34:12.262Z,5.50
2023-03-25T12:36:50.385Z,5.60
2023-03-25T12:39:43.229Z,6.20
2023-03-25T12:42:14.153Z,5.80
2023-03-25T12:45:15.948Z,4.40
2023-03-25T12:47:48.322Z,5.40
2023-03-25T12:50:57.350Z,5.30
2023-03-25T12:53:25.656Z,5.40
2023-03-25T12:56:19.442Z,5.30
2023-03-25T12:58:52.772Z,5.50
2023-03-25T13:01:49.750Z,5.30
2023-03-25T13:04:28.487Z,5.60
2023-03-25T13:07:16.798Z,4.80
2023-03-25T13:16:43.111Z,6.20
2023-03-25T13:19:22.591Z,5.20
2023-03-25T13:21:52.287Z,6.10
2023-03-25T13:24:22.773Z,6.10
2023-03-25T13:26:50.350Z,5.90
2023-03-25T13:29:54.515Z,6.70
2023-03-25T13:32:33.533Z,5.50
2023-03-25T13:35:03.530Z,6.30
2023-03-25T13:37:38.233Z,6.00
2023-03-25T13:40:19.029Z,6.10
2023-03-25T13:43:16.965Z,6.20
2023-03-25T13:46:06.536Z,6.40
2023-03-25T13:48:41.800Z,6.20
2023-03-25T13:51:08.486Z,6.50
2023-03-25T13:53:38.339Z,7.00
2023-03-25T13:56:06.151Z,7.00
2023-03-25T13:58:51.989Z,6.80
2023-03-25T14:01:37.894Z,6.30
2023-03-25T14:04:27.037Z,5.90
2023-03-25T14:06:59.850Z,6.30
2023-03-25T14:09:58.628Z,5.80
2023-03-25T14:12:32.989Z,6.70
2023-03-25T14:15:03.872Z,6.90
2023-03-25T14:17:32.934Z,6.80
2023-03-25T14:20:01.479Z,6.90
2023-03-25T14:22:32.808Z,6.80
2023-03-25T14:25:00.971Z,6.70
2023-03-25T14:27:31.040Z,5.30
2023-03-25T14:29:58.297Z,6.00
2023-03-25T14:32:31.605Z,5.90
2023-03-25T14:35:32.930Z,6.40
2023-03-25T14:38:06.554Z,6.30
2023-03-25T14:40:47.414Z,5.90
2023-03-25T14:43:53.522Z,5.80
2023-03-25T14:46:21.425Z,6.10
2023-03-25T14:49:04.509Z,5.70
2023-03-25T14:51:35.133Z,6.90
2023-03-25T14:54:02.252Z,7.00
2023-03-25T14:56:35.380Z,8.10
2023-03-25T14:59:10.443Z,7.80
2023-03-25T15:01:37.755Z,7.80
2023-03-25T15:04:34.005Z,8.00
2023-03-25T15:07:04.408Z,7.60
2023-03-25T15:09:30.735Z,7.30
2023-03-25T15:12:02.094Z,9.00
2023-03-25T15:14:35.421Z,7.90
2023-03-25T15:17:05.833Z,7.90
2023-03-25T15:20:09.435Z,8.20
2023-03-25T15:22:38.738Z,8.80
2023-03-25T15:25:18.449Z,10.00
2023-03-25T15:27:55.881Z,11.60
2023-03-25T15:30:51.092Z,11.00
2023-03-25T15:34:00.279Z,11.30
2023-03-25T15:36:53.450Z,11.90
2023-03-25T15:39:41.465Z,11.60
2023-03-25T15:42:14.603Z,12.10
2023-03-25T15:44:49.483Z,11.40
2023-03-25T15:47:50.760Z,11.00
2023-03-25T15:50:41.335Z,10.00
2023-03-25T15:53:42.936Z,9.20
2023-03-25T15:56:12.128Z,8.00
2023-03-25T15:59:08.062Z,8.50
2023-03-25T16:01:39.058Z,8.20
2023-03-25T16:04:30.783Z,8.10
2023-03-25T16:06:57.341Z,10.00
2023-03-25T16:09:27.361Z,10.30
2023-03-25T16:12:01.671Z,9.90
2023-03-25T16:14:32.716Z,9.70
2023-03-25T16:17:05.986Z,10.30
2023-03-25T16:19:38.831Z,11.30
2023-03-25T16:22:32.602Z,10.50
2023-03-25T16:25:01.956Z,9.60
2023-03-25T16:27:37.225Z,9.60
2023-03-25T16:30:37.012Z,10.00
2023-03-25T16:33:07.650Z,8.10
2023-03-25T16:35:43.511Z,10.90
2023-03-25T16:38:16.734Z,10.70
2023-03-25T16:40:46.418Z,10.00
2023-03-25T16:43:22.791Z,9.90
2023-03-25T16:45:51.130Z,10.70
2023-03-25T16:48:21.677Z,10.60
2023-03-25T16:50:49.041Z,10.30
2023-03-25T16:53:16.293Z,10.90
2023-03-25T16:55:50.361Z,11.10
2023-03-25T16:58:21.003Z,10.50
2023-03-25T17:00:49.961Z,11.90
2023-03-25T17:03:38.641Z,11.60
2023-03-25T17:06:28.016Z,12.10
2023-03-25T17:08:56.572Z,12.00
2023-03-25T17:11:26.101Z,12.30
2023-03-25T17:14:04.458Z,11.70
2023-03-25T17:16:31.891Z,11.90
2023-03-25T17:18:59.230Z,12.80
2023-03-25T17:21:32.086Z,11.70
2023-03-25T17:24:00.598Z,12.20
2023-03-25T17:26:37.307Z,11.80
2023-03-25T17:29:06.187Z,11.90
2023-03-25T17:31:35.745Z,12.30
2023-03-25T17:34:07.631Z,11.80
2023-03-25T17:36:35.994Z,12.80
2023-03-25T17:39:03.998Z,11.40
2023-03-25T17:41:38.170Z,11.90
2023-03-25T17:44:06.057Z,12.10
2023-03-25T17:46:34.099Z,12.00
2023-03-25T17:49:11.308Z,11.80
2023-03-25T17:51:39.182Z,11.10
2023-03-25T17:54:09.336Z,11.30
2023-03-25T17:56:38.048Z,11.10
2023-03-25T17:59:11.388Z,11.30
2023-03-25T18:01:41.585Z,10.70
2023-03-25T18:04:11.745Z,10.60
2023-03-25T18:06:45.757Z,10.70
2023-03-25T18:09:21.435Z,9.70
2023-03-25T18:11:53.097Z,10.00
2023-03-25T18:14:20.611Z,9.60
2023-03-25T18:16:48.281Z,9.40
2023-03-25T18:19:16.971Z,9.30
2023-03-25T18:21:43.474Z,10.10
2023-03-25T18:24:12.407Z,9.40
2023-03-25T18:26:42.013Z,9.10
2023-03-25T18:29:21.717Z,10.60
2023-03-25T18:31:48.882Z,9.00
2023-03-25T18:34:16.159Z,9.20
2023-03-25T18:36:43.458Z,8.90
2023-03-25T18:39:14.612Z,9.70
2023-03-25T18:41:41.619Z,8.60
2023-03-25T18:44:08.826Z,9.60
2023-03-25T18:46:37.144Z,9.80
2023-03-25T18:49:05.027Z,9.80
2023-03-25T18:51:32.150Z,9.30
2023-03-25T18:54:00.396Z,9.90
2023-03-25T18:56:27.612Z,10.70
2023-03-25T18:58:56.272Z,10.00
2023-03-25T19:01:25.051Z,10.00
2023-03-25T19:03:52.398Z,9.40
2023-03-25T19:06:21.002Z,9.60
2023-03-25T19:08:49.336Z,9.70
2023-03-25T19:11:21.775Z,9.70
2023-03-25T19:13:53.325Z,9.90
2023-03-25T19:16:23.524Z,8.30
2023-03-25T19:18:50.105Z,9.80
2023-03-25T19:21:19.266Z,9.00
2023-03-25T19:23:46.676Z,8.60
2023-03-25T19:26:14.162Z,9.80
2023-03-25T19:28:47.575Z,9.10
2023-03-25T19:31:17.913Z,9.60
2023-03-25T19:33:44.832Z,9.40
2023-03-25T19:36:14.431Z,10.00
2023-03-25T19:38:40.969Z,9.90
2023-03-25T19:41:14.867Z,8.90
2023-03-25T19:43:44.197Z,9.20
2023-03-25T19:46:11.288Z,10.00
2023-03-25T19:48:40.522Z,9.50
2023-03-25T19:51:07.851Z,10.80
2023-03-25T19:53:43.328Z,9.40
2023-03-25T19:56:13.349Z,9.70
2023-03-25T19:58:40.714Z,9.80
2023-03-25T20:01:08.249Z,10.20
2023-03-25T20:03:38.042Z,10.00
2023-03-25T20:06:06.060Z,9.70
2023-03-25T20:08:34.926Z,8.40
2023-03-25T20:11:08.763Z,10.00
2023-03-25T20:13:36.757Z,8.50
2023-03-25T20:16:04.477Z,10.00
2023-03-25T20:18:30.857Z,10.60
2023-03-25T20:21:06.555Z,10.60
2023-03-25T20:23:35.456Z,10.50
2023-03-25T20:26:02.961Z,10.70
2023-03-25T20:28:31.626Z,9.50
2023-03-25T20:30:58.504Z,11.00
2023-03-25T20:33:26.844Z,10.70
2023-03-25T20:35:53.743Z,10.40
2023-03-25T20:38:21.302Z,11.10
2023-03-25T20:40:48.444Z,10.30
2023-03-25T20:43:15.697Z,11.30
2023-03-25T20:45:43.177Z,11.40
2023-03-25T20:48:12.692Z,10.90
2023-03-25T20:50:40.661Z,10.10
2023-03-25T20:53:09.163Z,10.30
2023-03-25T20:55:38.828Z,9.90
2023-03-25T20:58:08.949Z,10.90
2023-03-25T21:00:36.784Z,10.30
2023-03-25T21:03:05.280Z,10.70
2023-03-25T21:05:34.191Z,11.00
2023-03-25T21:08:00.534Z,11.60
2023-03-25T21:10:27.196Z,10.00
2023-03-25T21:13:03.416Z,9.40
2023-03-25T21:15:30.899Z,10.50
2023-03-25T21:17:57.296Z,10.50
2023-03-25T21:20:28.317Z,11.10
2023-03-25T21:22:59.359Z,10.40
2023-03-25T21:33:25.783Z,10.90
2023-03-25T21:35:53.408Z,11.20
2023-03-25T21:38:28.603Z,11.00
2023-03-25T21:41:00.870Z,10.40
2023-03-25T21:43:29.862Z,9.90
2023-03-25T21:45:57.190Z,11.00
2023-03-25T21:48:32.557Z,11.20
2023-03-25T21:51:01.331Z,10.80
2023-03-25T21:53:32.519Z,11.10
2023-03-25T21:56:03.814Z,11.10
2023-03-25T21:58:39.267Z,11.30
2023-03-25T22:01:13.300Z,11.20
2023-03-25T22:03:44.932Z,11.10
2023-03-25T22:06:14.119Z,11.80
2023-03-25T22:08:41.766Z,11.40
2023-03-25T22:11:08.997Z,10.90
2023-03-25T22:13:36.333Z,10.90
2023-03-25T22:16:13.934Z,11.10
2023-03-25T22:18:41.953Z,11.00
2023-03-25T22:21:10.201Z,11.90
2023-03-25T22:23:38.465Z,10.70
2023-03-25T22:26:07.614Z,11.10
2023-03-25T22:28:35.694Z,10.40
2023-03-25T22:31:17.297Z,10.00
2023-03-25T22:33:44.502Z,10.10
2023-03-25T22:36:15.011Z,10.20
2023-03-25T22:38:45.894Z,10.60
2023-03-25T22:41:14.476Z,10.40
2023-03-25T22:43:43.437Z,10.40
2023-03-25T22:46:10.212Z,9.30
2023-03-25T22:48:39.422Z,9.70
2023-03-25T22:51:07.464Z,10.10
2023-03-25T22:53:35.780Z,10.30
2023-03-25T22:56:03.866Z,9.70
2023-03-25T22:58:30.484Z,11.10
2023-03-25T23:00:59.814Z,10.60
2023-03-25T23:03:27.704Z,10.00
2023-03-25T23:06:00.560Z,10.10
2023-03-25T23:08:34.537Z,10.80
2023-03-25T23:11:07.032Z,10.90
2023-03-25T23:13:34.533Z,10.20
2023-03-25T23:16:03.892Z,10.50
2023-03-25T23:18:30.677Z,10.20
2023-03-25T23:20:59.563Z,10.30
2023-03-25T23:23:26.453Z,10.10
2023-03-25T23:26:04.440Z,10.40
2023-03-25T23:28:35.668Z,10.30
2023-03-25T23:31:09.239Z,10.40
2023-03-25T23:33:36.433Z,10.70
2023-03-25T23:36:05.213Z,11.60
2023-03-25T23:38:33.065Z,10.60
2023-03-25T23:41:21.473Z,11.40
2023-03-25T23:43:49.160Z,10.50
2023-03-25T23:46:17.784Z,11.20
2023-03-25T23:48:46.861Z,10.80
2023-03-25T23:51:17.821Z,10.30
2023-03-25T23:53:46.601Z,11.10
2023-03-25T23:56:16.485Z,10.70
2023-03-25T23:58:43.701Z,11.50
